MSR989 OEJN-HECA
Flight info
| Callsign | MSR989 |
|---|---|
| Flight time | N/A |
| Altitude | 40000 |
| Route | MIGDA2W/34C MIGDA L677 CVO |
| Aircraft | A359/H-SDE2E3GHIJ3J4J5LM1ORWXY/LB1D1 |
Departure
| Time | 2026-04-29 19:49 |
|---|---|
| Airport | King Abdulaziz International Airport (OEJN) |
Arrival
| Time | N/A |
|---|---|
| Airport | Cairo International Airport (HECA) |
| Time | Latitude | Longitude | Altitude | Speed | Heading |
|---|---|---|---|---|---|
| 2026-04-29 19:29 | 21.67165 | 39.16494 | 38 ft | 0 kts | 191° |
| 2026-04-29 19:39 | 21.67207 | 39.16509 | 37 ft | 2 kts | 210° |
| 2026-04-29 19:39 | 21.67221 | 39.16519 | 35 ft | 2 kts | 222° |
| 2026-04-29 19:40 | 21.67232 | 39.16532 | 33 ft | 2 kts | 236° |
| 2026-04-29 19:40 | 21.67240 | 39.16548 | 35 ft | 2 kts | 250° |
| 2026-04-29 19:40 | 21.67244 | 39.16564 | 34 ft | 2 kts | 262° |
| 2026-04-29 19:40 | 21.67245 | 39.16582 | 34 ft | 2 kts | 271° |
| 2026-04-29 19:41 | 21.67244 | 39.16597 | 34 ft | 1 kts | 277° |
| 2026-04-29 19:41 | 21.67243 | 39.16601 | 36 ft | 0 kts | 279° |
| 2026-04-29 19:44 | 21.67252 | 39.16555 | 37 ft | 11 kts | 287° |
| 2026-04-29 19:44 | 21.67334 | 39.16489 | 38 ft | 19 kts | 340° |
| 2026-04-29 19:44 | 21.67484 | 39.16430 | 37 ft | 27 kts | 340° |
| 2026-04-29 19:45 | 21.67532 | 39.16280 | 36 ft | 26 kts | 231° |
| 2026-04-29 19:45 | 21.67507 | 39.16205 | 36 ft | 13 kts | 248° |
| 2026-04-29 19:45 | 21.67405 | 39.16177 | 37 ft | 21 kts | 166° |
| 2026-04-29 19:45 | 21.67234 | 39.16232 | 38 ft | 30 kts | 158° |
| 2026-04-29 19:46 | 21.67017 | 39.16328 | 39 ft | 37 kts | 161° |
| 2026-04-29 19:46 | 21.66754 | 39.16425 | 40 ft | 42 kts | 160° |
| 2026-04-29 19:46 | 21.66494 | 39.16526 | 41 ft | 42 kts | 160° |
| 2026-04-29 19:46 | 21.66365 | 39.16583 | 41 ft | 11 kts | 150° |
| 2026-04-29 19:47 | 21.66278 | 39.16624 | 41 ft | 16 kts | 162° |
| 2026-04-29 19:47 | 21.66199 | 39.16623 | 41 ft | 0 kts | 216° |
| 2026-04-29 19:47 | 21.66196 | 39.16621 | 41 ft | 3 kts | 217° |
| 2026-04-29 19:48 | 21.66166 | 39.16572 | 41 ft | 14 kts | 245° |
| 2026-04-29 19:48 | 21.66165 | 39.16495 | 40 ft | 19 kts | 294° |
| 2026-04-29 19:48 | 21.66413 | 39.16370 | 41 ft | 68 kts | 340° |
| 2026-04-29 19:48 | 21.67186 | 39.16069 | 39 ft | 165 kts | 340° |
| 2026-04-29 19:49 | 21.68403 | 39.15574 | 630 ft | 205 kts | 338° |
| 2026-04-29 19:49 | 21.69844 | 39.14981 | 1413 ft | 238 kts | 341° |
| 2026-04-29 19:49 | 21.71427 | 39.14369 | 1907 ft | 244 kts | 341° |
| 2026-04-29 19:49 | 21.73027 | 39.13752 | 2028 ft | 245 kts | 340° |
| 2026-04-29 19:50 | 21.74628 | 39.13128 | 1929 ft | 243 kts | 340° |
| 2026-04-29 19:50 | 21.76222 | 39.12501 | 2165 ft | 248 kts | 340° |
| 2026-04-29 19:50 | 21.77860 | 39.11856 | 2904 ft | 252 kts | 339° |
| 2026-04-29 19:50 | 21.79522 | 39.11203 | 3756 ft | 256 kts | 338° |
| 2026-04-29 19:51 | 21.81205 | 39.10540 | 4616 ft | 260 kts | 338° |
| 2026-04-29 19:51 | 21.82896 | 39.09872 | 5376 ft | 265 kts | 337° |
| 2026-04-29 19:51 | 21.84638 | 39.09184 | 6180 ft | 269 kts | 337° |
| 2026-04-29 19:51 | 21.86413 | 39.08479 | 6883 ft | 276 kts | 337° |
| 2026-04-29 19:52 | 21.88229 | 39.07760 | 7688 ft | 280 kts | 337° |
| 2026-04-29 19:52 | 21.90066 | 39.07032 | 8527 ft | 283 kts | 337° |
| 2026-04-29 19:52 | 21.91899 | 39.06215 | 9324 ft | 286 kts | 333° |
| 2026-04-29 19:52 | 21.93724 | 39.05318 | 9818 ft | 290 kts | 332° |
| 2026-04-29 19:53 | 21.95566 | 39.04411 | 9988 ft | 292 kts | 333° |
| 2026-04-29 19:53 | 21.97392 | 39.03523 | 10004 ft | 292 kts | 333° |
| 2026-04-29 19:53 | 21.99253 | 39.02626 | 10003 ft | 293 kts | 333° |
| 2026-04-29 19:53 | 22.01114 | 39.01733 | 9990 ft | 294 kts | 333° |
| 2026-04-29 19:54 | 22.04856 | 38.99939 | 10135 ft | 301 kts | 333° |
| 2026-04-29 19:54 | 22.06831 | 38.98988 | 10423 ft | 323 kts | 333° |
| 2026-04-29 19:54 | 22.08947 | 38.97970 | 10769 ft | 342 kts | 333° |
| 2026-04-29 19:55 | 22.11127 | 38.96926 | 11256 ft | 353 kts | 333° |
| 2026-04-29 19:55 | 22.13270 | 38.95902 | 11921 ft | 357 kts | 333° |
| 2026-04-29 19:55 | 22.14999 | 38.95076 | 12535 ft | 358 kts | 333° |
| 2026-04-29 19:55 | 22.15972 | 38.94612 | 12831 ft | 360 kts | 333° |
| 2026-04-29 19:56 | 22.16782 | 38.94225 | 13146 ft | 360 kts | 333° |
| 2026-04-29 19:56 | 22.17835 | 38.93723 | 13498 ft | 361 kts | 333° |
| 2026-04-29 19:56 | 22.18277 | 38.93514 | 13657 ft | 362 kts | 333° |